createdAt,value
2019-05-23T00:02:02.717Z,18.33
2019-05-23T00:04:29.339Z,18.32
2019-05-23T00:06:56.013Z,18.36
2019-05-23T00:09:22.631Z,18.41
2019-05-23T00:11:49.259Z,18.40
2019-05-23T00:14:15.848Z,18.54
2019-05-23T00:16:42.548Z,18.51
2019-05-23T00:19:09.256Z,18.54
2019-05-23T00:24:11.373Z,18.42
2019-05-23T00:26:38.152Z,18.37
2019-05-23T00:29:10.040Z,18.36
2019-05-23T00:31:33.235Z,18.46
2019-05-23T00:33:59.889Z,18.44
2019-05-23T00:36:26.551Z,18.50
2019-05-23T00:38:53.205Z,18.63
2019-05-23T00:41:19.799Z,18.49
2019-05-23T00:43:46.584Z,18.30
2019-05-23T00:46:13.198Z,18.47
2019-05-23T00:48:39.783Z,18.51
2019-05-23T00:51:06.562Z,18.42
2019-05-23T00:53:33.235Z,18.38
2019-05-23T00:55:59.866Z,18.54
2019-05-23T00:58:26.565Z,18.48
2019-05-23T01:00:54.997Z,18.33
2019-05-23T01:03:21.595Z,18.35
2019-05-23T01:05:48.236Z,18.39
2019-05-23T01:08:14.821Z,18.30
2019-05-23T01:10:41.424Z,18.35
2019-05-23T01:13:08.144Z,18.44
2019-05-23T01:15:34.969Z,18.31
2019-05-23T01:18:01.573Z,18.30
2019-05-23T01:20:29.490Z,18.36
2019-05-23T01:22:56.109Z,18.39
2019-05-23T01:25:22.936Z,18.36
2019-05-23T01:27:51.919Z,18.37
2019-05-23T01:30:18.553Z,18.42
2019-05-23T01:32:48.981Z,18.41
2019-05-23T01:35:15.619Z,18.55
2019-05-23T01:37:42.225Z,18.52
2019-05-23T01:40:11.556Z,18.41
2019-05-23T01:42:40.330Z,18.37
2019-05-23T01:45:09.141Z,18.56
2019-05-23T01:47:37.893Z,18.45
2019-05-23T01:50:04.647Z,18.32
2019-05-23T01:52:31.253Z,18.37
2019-05-23T01:54:57.872Z,18.68
2019-05-23T01:57:25.485Z,18.54
2019-05-23T02:00:08.363Z,18.48
2019-05-23T02:02:20.451Z,18.55
2019-05-23T02:04:47.130Z,18.53
2019-05-23T02:07:13.724Z,18.44
2019-05-23T02:09:40.340Z,18.35
2019-05-23T02:12:09.457Z,18.23
2019-05-23T02:14:36.040Z,18.17
2019-05-23T02:17:02.909Z,18.25
2019-05-23T02:19:29.487Z,18.42
2019-05-23T02:21:57.284Z,18.30
2019-05-23T02:24:23.879Z,18.38
2019-05-23T02:26:50.533Z,18.39
2019-05-23T02:29:20.788Z,18.52
2019-05-23T02:31:47.408Z,18.32
2019-05-23T02:34:15.472Z,18.17
2019-05-23T02:36:42.145Z,18.42
2019-05-23T02:39:12.469Z,18.55
2019-05-23T02:41:39.125Z,18.49
2019-05-23T02:44:08.245Z,18.50
2019-05-23T02:46:38.338Z,18.58
2019-05-23T02:49:07.072Z,18.54
2019-05-23T02:51:33.887Z,18.55
2019-05-23T02:54:01.055Z,18.40
2019-05-23T02:56:27.682Z,18.68
2019-05-23T02:58:54.366Z,18.43
2019-05-23T03:01:21.014Z,18.31
2019-05-23T03:03:47.748Z,18.48
2019-05-23T03:06:14.486Z,18.50
2019-05-23T03:08:41.071Z,18.58
2019-05-23T03:11:07.746Z,18.59
2019-05-23T03:13:34.335Z,18.65
2019-05-23T03:16:00.918Z,18.61
2019-05-23T03:18:27.550Z,18.57
2019-05-23T03:20:54.138Z,18.62
2019-05-23T03:23:20.731Z,18.42
2019-05-23T03:25:47.393Z,18.27
2019-05-23T03:28:14.050Z,18.20
2019-05-23T03:30:40.659Z,18.25
2019-05-23T03:33:07.288Z,18.29
2019-05-23T03:35:33.872Z,18.25
2019-05-23T03:38:03.323Z,18.48
2019-05-23T03:40:30.011Z,18.57
2019-05-23T03:42:58.729Z,18.58
2019-05-23T03:45:25.302Z,18.69
2019-05-23T03:47:51.929Z,18.75
2019-05-23T03:50:19.524Z,18.94
2019-05-23T03:52:46.162Z,18.82
2019-05-23T03:55:12.782Z,18.62
2019-05-23T03:57:39.487Z,18.42
2019-05-23T04:00:08.193Z,18.39
2019-05-23T04:02:34.894Z,18.10
2019-05-23T04:05:01.524Z,17.97
2019-05-23T04:07:28.217Z,18.06
2019-05-23T04:09:55.477Z,18.14
2019-05-23T04:12:22.265Z,18.26
2019-05-23T04:14:48.876Z,18.43
2019-05-23T04:17:15.529Z,18.50
2019-05-23T04:19:42.182Z,18.32
2019-05-23T04:22:08.756Z,18.15
2019-05-23T04:24:35.438Z,18.19
2019-05-23T04:27:02.023Z,18.35
2019-05-23T04:29:29.415Z,18.45
2019-05-23T04:32:07.020Z,18.55
2019-05-23T04:34:24.435Z,18.59
2019-05-23T04:36:51.036Z,18.55
2019-05-23T04:39:21.589Z,18.51
2019-05-23T04:41:50.235Z,18.62
2019-05-23T04:44:16.566Z,18.73
2019-05-23T04:46:43.222Z,18.69
2019-05-23T04:49:09.808Z,18.74
2019-05-23T04:51:36.424Z,18.72
2019-05-23T04:54:03.103Z,18.73
2019-05-23T04:56:29.686Z,18.59
2019-05-23T04:58:56.311Z,18.56
2019-05-23T05:01:22.976Z,18.58
2019-05-23T05:03:49.571Z,18.64
2019-05-23T05:06:16.251Z,18.69
2019-05-23T05:08:45.010Z,18.81
2019-05-23T05:11:11.624Z,18.83
2019-05-23T05:13:38.242Z,18.85
2019-05-23T05:16:04.873Z,18.87
2019-05-23T05:18:31.473Z,19.09
2019-05-23T05:20:58.213Z,19.09
2019-05-23T05:23:24.834Z,19.07
2019-05-23T05:25:51.416Z,19.19
2019-05-23T05:28:18.741Z,19.19
2019-05-23T05:30:45.370Z,19.13
2019-05-23T05:33:12.023Z,19.15
2019-05-23T05:35:38.592Z,19.34
2019-05-23T05:38:05.323Z,19.47
2019-05-23T05:40:31.931Z,19.52
2019-05-23T05:42:58.603Z,19.56
2019-05-23T05:45:25.258Z,19.55
2019-05-23T05:47:51.876Z,19.49
2019-05-23T05:50:18.490Z,19.61
2019-05-23T05:52:45.107Z,19.53
2019-05-23T05:57:47.451Z,19.46
2019-05-23T06:00:14.479Z,19.48
2019-05-23T06:02:41.101Z,19.38
2019-05-23T06:05:07.794Z,19.25
2019-05-23T06:07:39.336Z,19.06
2019-05-23T06:10:05.978Z,18.96
2019-05-23T06:12:32.567Z,18.85
2019-05-23T06:15:00.980Z,18.78
2019-05-23T06:17:27.608Z,18.85
2019-05-23T06:19:54.264Z,18.96
2019-05-23T06:22:21.113Z,19.06
2019-05-23T06:24:52.478Z,19.21
2019-05-23T06:27:16.219Z,19.29
2019-05-23T06:29:43.113Z,19.30
2019-05-23T06:32:09.830Z,19.24
2019-05-23T06:34:38.748Z,19.11
2019-05-23T06:37:07.292Z,19.19
2019-05-23T06:39:36.293Z,19.20
2019-05-23T06:42:07.241Z,19.31
2019-05-23T06:44:34.924Z,19.40
2019-05-23T06:47:04.708Z,19.48
2019-05-23T06:49:32.325Z,19.49
2019-05-23T06:51:59.901Z,19.47
2019-05-23T06:54:28.972Z,19.52
2019-05-23T06:56:56.934Z,19.65
2019-05-23T06:59:26.929Z,19.86
2019-05-23T07:01:54.963Z,20.02
2019-05-23T07:04:21.800Z,20.27
2019-05-23T07:09:26.924Z,20.48
2019-05-23T07:11:56.580Z,20.48
2019-05-23T07:19:39.189Z,21.17
2019-05-23T07:22:06.846Z,21.35
2019-05-23T07:30:00.166Z,21.38
2019-05-23T07:32:27.721Z,21.24
2019-05-23T07:34:55.345Z,21.12
2019-05-23T07:37:24.506Z,21.11
2019-05-23T07:39:52.164Z,21.30
2019-05-23T07:42:18.784Z,21.44
2019-05-23T07:44:49.006Z,21.64
2019-05-23T07:47:19.254Z,21.62
2019-05-23T07:49:49.139Z,21.78
2019-05-23T07:52:18.976Z,22.02
2019-05-23T07:54:46.657Z,21.95
2019-05-23T07:57:13.573Z,22.02
2019-05-23T07:59:43.406Z,22.32
2019-05-23T08:02:10.083Z,22.24
2019-05-23T08:07:14.713Z,22.48
2019-05-23T08:09:43.680Z,22.75
2019-05-23T08:12:11.448Z,22.89
2019-05-23T08:35:40.589Z,23.60
2019-05-23T08:38:09.188Z,23.37
2019-05-23T08:40:37.962Z,23.27
2019-05-23T08:43:04.851Z,23.67
2019-05-23T08:45:34.270Z,23.69
2019-05-23T08:48:06.076Z,23.58
2019-05-23T08:50:38.217Z,23.60
2019-05-23T08:53:04.000Z,23.46
2019-05-23T08:58:09.393Z,23.93
2019-05-23T09:00:36.106Z,23.90
2019-05-23T09:03:05.347Z,23.62
2019-05-23T09:05:32.501Z,23.67
2019-05-23T09:07:59.228Z,23.65
2019-05-23T09:10:29.737Z,23.52
2019-05-23T09:12:56.355Z,23.40
2019-05-23T09:15:22.940Z,23.25
2019-05-23T09:17:54.042Z,23.24
2019-05-23T09:20:21.102Z,23.18
2019-05-23T09:22:55.068Z,23.34
2019-05-23T09:25:32.818Z,23.47
2019-05-23T09:49:11.126Z,23.89
2019-05-23T09:51:37.175Z,24.34
2019-05-23T09:54:06.906Z,24.89
2019-05-23T09:56:33.448Z,25.14
2019-05-23T10:19:57.224Z,26.78
2019-05-23T10:22:23.730Z,26.47
2019-05-23T10:24:52.169Z,26.02
2019-05-23T10:27:18.779Z,26.04
2019-05-23T10:29:46.339Z,26.07
2019-05-23T10:32:16.474Z,26.12
2019-05-23T10:34:43.073Z,26.36
2019-05-23T10:37:10.519Z,26.48
2019-05-23T10:39:39.901Z,26.62
2019-05-23T10:42:06.620Z,27.16
2019-05-23T10:44:33.113Z,26.45
2019-05-23T10:47:01.994Z,26.42
2019-05-23T10:49:28.587Z,26.58
2019-05-23T10:51:55.152Z,26.64
2019-05-23T10:54:23.700Z,26.52
2019-05-23T10:56:50.242Z,26.63
2019-05-23T10:59:16.820Z,26.59
2019-05-23T11:01:45.808Z,26.45
2019-05-23T11:04:12.371Z,26.58
2019-05-23T11:06:38.911Z,26.74
2019-05-23T11:09:07.599Z,26.83
2019-05-23T11:11:34.129Z,26.66
2019-05-23T11:14:00.775Z,26.37
2019-05-23T11:16:29.899Z,26.06
2019-05-23T11:18:56.485Z,26.05
2019-05-23T11:21:23.047Z,25.82
2019-05-23T11:23:51.727Z,25.91
2019-05-23T11:26:18.258Z,26.25
2019-05-23T11:28:45.237Z,26.24
2019-05-23T11:31:14.698Z,26.37
2019-05-23T11:33:42.181Z,26.74
2019-05-23T11:36:09.133Z,27.08
2019-05-23T11:38:38.128Z,27.39
2019-05-23T11:41:05.067Z,27.49
2019-05-23T11:43:32.218Z,27.42
2019-05-23T11:46:02.510Z,27.51
2019-05-23T11:48:29.074Z,27.72
2019-05-23T11:50:55.622Z,27.38
2019-05-23T11:53:25.013Z,26.82
2019-05-23T11:55:54.467Z,27.08
2019-05-23T11:58:20.217Z,27.29
2019-05-23T12:00:48.882Z,26.74
2019-05-23T12:03:15.393Z,27.07
2019-05-23T12:05:41.973Z,27.30
2019-05-23T12:08:10.275Z,27.49
2019-05-23T12:10:36.856Z,27.54
2019-05-23T12:13:03.404Z,27.76
2019-05-23T20:22:55.654Z,21.67
2019-05-23T20:25:26.284Z,21.45
2019-05-23T20:27:58.055Z,21.33
2019-05-23T20:30:27.238Z,21.45
2019-05-23T20:35:45.283Z,21.24
2019-05-23T20:43:24.829Z,21.45
2019-05-23T20:45:50.913Z,21.61
2019-05-23T20:48:23.605Z,21.58
2019-05-23T20:50:53.414Z,21.68
2019-05-23T20:53:22.097Z,21.60
2019-05-23T20:55:48.911Z,21.67
2019-05-23T20:58:18.441Z,21.86
2019-05-23T21:00:46.238Z,21.75
2019-05-23T21:03:12.834Z,21.57
2019-05-23T21:05:46.282Z,21.67
2019-05-23T21:08:17.085Z,21.63
2019-05-23T21:10:45.269Z,21.44
2019-05-23T21:23:33.467Z,21.28
2019-05-23T21:26:01.076Z,20.99
2019-05-23T21:28:30.023Z,20.89
2019-05-23T21:36:08.525Z,20.97
2019-05-23T21:38:35.385Z,20.93
2019-05-23T21:41:03.311Z,20.41
2019-05-23T21:46:08.605Z,20.06
2019-05-23T21:48:41.488Z,20.23
2019-05-23T21:53:47.413Z,20.35
2019-05-23T21:56:14.034Z,20.32
2019-05-23T21:58:45.319Z,20.27
2019-05-23T22:01:14.923Z,20.31
2019-05-23T22:03:41.295Z,20.22
2019-05-23T22:08:45.052Z,20.25
2019-05-23T22:11:16.003Z,20.30
2019-05-23T22:16:19.627Z,20.55
2019-05-23T22:18:47.261Z,20.69
2019-05-23T22:21:19.558Z,20.52
2019-05-23T22:23:46.152Z,20.21
2019-05-23T22:26:17.367Z,19.96
2019-05-23T22:41:33.556Z,20.41
2019-05-23T22:44:07.212Z,20.13
2019-05-23T22:46:44.730Z,20.07
2019-05-23T22:51:56.933Z,20.18
2019-05-23T22:57:03.083Z,20.12
2019-05-23T22:59:32.987Z,19.85
2019-05-23T23:02:00.378Z,19.78
2019-05-23T23:17:18.278Z,19.68
2019-05-23T23:19:49.198Z,19.79
2019-05-23T23:22:21.072Z,19.88
2019-05-23T23:24:48.709Z,19.89
2019-05-23T23:27:18.294Z,19.88
2019-05-23T23:40:03.996Z,20.15
2019-05-23T23:42:31.302Z,20.03
2019-05-23T23:47:37.054Z,19.87
2019-05-23T23:50:04.692Z,19.88
2019-05-23T23:55:17.882Z,19.73
2019-05-23T23:57:45.560Z,19.65
